KLAX/LAX METAR and TAF weather

Enter ICAO airport designator
Station Type Date Time Source
KLAX METAR 2020/01/17 13:53 UTC NOAA

KLAX 171353Z 34005KT 10SM FEW006 FEW019 SCT200 BKN250 11/08 A3016 RMK AO2 SLP211 T01060078


Station Type Date Time Source
KLAX Decoded METAR 2020/01/17 13:53 UTC NOAA

LOS ANGELES INTERNTL AIRPORT, CA, United States (KLAX) 33-56N 118-23W 46M
Jan 17, 2020 - 08:53 AM EST / 2020.01.17 1353 UTC
Wind: from the NNW (340 degrees) at 6 MPH (5 KT):0
Visibility: 10 mile(s):0
Sky conditions: mostly cloudy
Temperature: 51.1 F (10.6 C)
Dew Point: 46.0 F (7.8 C)
Relative Humidity: 82%
Pressure (altimeter): 30.16 in. Hg (1021 hPa)
ob: KLAX 171353Z 34005KT 10SM FEW006 FEW019 SCT200 BKN250 11/08 A3016 RMK AO2 SLP211 T01060078
cycle: 14

Station Type Date Time Source
KLAX TAF 2020/01/17 14:42 UTC NOAA

TAF
AMD KLAX 171340Z 1714/1818 06006KT P6SM SCT025
FM171900 25010KT P6SM BKN200
FM180300 VRB03KT P6SM SCT200

Example: see airport list